createdAt,value
2017-11-06T00:00:50.085Z,0
2017-11-06T00:01:52.474Z,0
2017-11-06T00:02:54.839Z,0
2017-11-06T00:03:57.211Z,0
2017-11-06T00:04:59.584Z,0
2017-11-06T00:06:01.955Z,0
2017-11-06T00:07:04.332Z,0
2017-11-06T00:08:06.700Z,0
2017-11-06T00:09:09.082Z,0
2017-11-06T00:10:11.452Z,0
2017-11-06T00:11:13.818Z,0
2017-11-06T00:12:16.187Z,0
2017-11-06T00:13:18.557Z,0
2017-11-06T00:14:20.923Z,0
2017-11-06T00:15:23.305Z,0
2017-11-06T00:16:25.668Z,0
2017-11-06T00:17:28.420Z,0
2017-11-06T00:18:30.776Z,0
2017-11-06T00:19:33.507Z,0
2017-11-06T00:20:35.880Z,0
2017-11-06T00:21:38.631Z,0
2017-11-06T00:22:40.998Z,0
2017-11-06T00:23:43.378Z,0
2017-11-06T00:24:46.084Z,0
2017-11-06T00:25:48.467Z,0
2017-11-06T00:26:50.838Z,0
2017-11-06T00:27:53.199Z,0
2017-11-06T00:28:55.571Z,0
2017-11-06T00:29:57.942Z,0
2017-11-06T00:31:00.323Z,0
2017-11-06T00:32:02.688Z,0
2017-11-06T00:33:05.066Z,0
2017-11-06T00:34:07.438Z,0
2017-11-06T00:35:09.811Z,0
2017-11-06T00:36:12.190Z,0
2017-11-06T00:37:14.567Z,0
2017-11-06T00:38:16.935Z,0
2017-11-06T00:39:19.316Z,0
2017-11-06T00:40:21.670Z,0
2017-11-06T00:41:24.042Z,0
2017-11-06T00:42:26.419Z,0
2017-11-06T00:43:28.780Z,0
2017-11-06T00:44:31.157Z,0
2017-11-06T00:45:33.883Z,0
2017-11-06T00:46:36.259Z,0
2017-11-06T00:47:38.625Z,0
2017-11-06T00:48:41.003Z,0
2017-11-06T00:49:43.362Z,0
2017-11-06T00:50:45.726Z,0
2017-11-06T00:51:48.112Z,0
2017-11-06T00:52:50.471Z,0
2017-11-06T00:53:52.848Z,0
2017-11-06T00:54:55.215Z,0
2017-11-06T00:55:57.587Z,0
2017-11-06T00:56:59.960Z,0
2017-11-06T00:58:02.339Z,0
2017-11-06T00:59:04.703Z,0
2017-11-06T01:00:07.079Z,0
2017-11-06T01:01:09.456Z,0
2017-11-06T01:02:11.834Z,0
2017-11-06T01:03:14.199Z,0
2017-11-06T01:04:16.582Z,0
2017-11-06T01:05:18.953Z,0
2017-11-06T01:06:21.318Z,0
2017-11-06T01:07:23.689Z,0
2017-11-06T01:08:26.060Z,0
2017-11-06T01:09:28.436Z,0
2017-11-06T01:10:30.806Z,0
2017-11-06T01:11:33.521Z,0
2017-11-06T01:12:35.887Z,0
2017-11-06T01:13:38.273Z,0
2017-11-06T01:14:40.991Z,0
2017-11-06T01:15:43.358Z,0
2017-11-06T01:16:45.734Z,0
2017-11-06T01:17:48.111Z,0
2017-11-06T01:18:50.483Z,0
2017-11-06T01:19:52.848Z,0
2017-11-06T01:20:55.216Z,0
2017-11-06T01:21:57.589Z,0
2017-11-06T01:23:00.313Z,0
2017-11-06T01:24:02.677Z,0
2017-11-06T01:25:05.040Z,0
2017-11-06T01:26:07.417Z,0
2017-11-06T01:27:09.793Z,0
2017-11-06T01:28:12.170Z,0
2017-11-06T01:29:14.540Z,0
2017-11-06T01:30:17.281Z,0
2017-11-06T01:31:19.653Z,0
2017-11-06T01:32:22.035Z,0
2017-11-06T01:33:24.407Z,0
2017-11-06T01:34:26.776Z,0
2017-11-06T01:35:29.147Z,0
2017-11-06T01:36:31.517Z,0
2017-11-06T01:37:33.876Z,0
2017-11-06T01:38:36.263Z,0
2017-11-06T01:39:38.617Z,0
2017-11-06T01:40:40.989Z,0
2017-11-06T01:41:43.367Z,0
2017-11-06T01:42:45.733Z,0
2017-11-06T01:43:48.111Z,0
2017-11-06T01:44:50.481Z,0
2017-11-06T01:45:52.854Z,0
2017-11-06T01:46:55.230Z,0
2017-11-06T01:47:57.602Z,0
2017-11-06T01:48:59.972Z,0
2017-11-06T01:50:02.336Z,0
2017-11-06T01:51:04.714Z,0
2017-11-06T01:52:07.083Z,0
2017-11-06T01:53:09.460Z,0
2017-11-06T01:54:11.825Z,0
2017-11-06T01:55:14.202Z,0
2017-11-06T01:56:16.566Z,0
2017-11-06T01:57:18.941Z,0
2017-11-06T01:58:21.305Z,0
2017-11-06T01:59:23.674Z,0
2017-11-06T02:00:26.045Z,0
2017-11-06T02:01:28.417Z,0
2017-11-06T02:02:30.794Z,0
2017-11-06T02:03:33.152Z,0
2017-11-06T02:04:35.520Z,0
2017-11-06T02:05:37.897Z,0
2017-11-06T02:06:40.266Z,0
2017-11-06T02:07:42.641Z,0
2017-11-06T02:08:45.013Z,0
2017-11-06T02:09:47.385Z,0
2017-11-06T02:10:49.765Z,0
2017-11-06T02:11:52.135Z,0
2017-11-06T02:12:54.499Z,0
2017-11-06T02:13:56.874Z,0
2017-11-06T02:14:59.240Z,0
2017-11-06T02:16:01.618Z,0
2017-11-06T02:17:04.346Z,0
2017-11-06T02:18:07.058Z,0
2017-11-06T02:19:09.428Z,0
2017-11-06T02:20:11.801Z,0
2017-11-06T02:21:14.183Z,0
2017-11-06T02:22:16.545Z,0
2017-11-06T02:23:18.921Z,0
2017-11-06T02:24:21.285Z,0
2017-11-06T02:25:23.664Z,0
2017-11-06T02:26:26.029Z,0
2017-11-06T02:27:28.406Z,0
2017-11-06T02:28:30.770Z,0
2017-11-06T02:29:33.146Z,0
2017-11-06T02:30:35.516Z,0
2017-11-06T02:31:37.884Z,0
2017-11-06T02:32:40.260Z,0
2017-11-06T02:33:42.625Z,0
2017-11-06T02:34:45.002Z,0
2017-11-06T02:35:47.360Z,0
2017-11-06T02:36:49.742Z,0
2017-11-06T02:37:52.100Z,0
2017-11-06T02:38:54.480Z,0
2017-11-06T02:39:56.844Z,0
2017-11-06T02:40:59.216Z,0
2017-11-06T02:42:01.933Z,0
2017-11-06T02:43:04.304Z,0
2017-11-06T02:44:06.670Z,0
2017-11-06T02:45:09.047Z,0
2017-11-06T02:46:11.407Z,0
2017-11-06T02:47:13.780Z,0
2017-11-06T02:48:16.157Z,0
2017-11-06T02:49:18.528Z,0
2017-11-06T02:50:20.893Z,0
2017-11-06T02:51:23.271Z,0
2017-11-06T02:52:25.641Z,0
2017-11-06T02:53:28.056Z,0
2017-11-06T02:54:30.786Z,0
2017-11-06T02:55:33.139Z,0
2017-11-06T02:56:35.517Z,0
2017-11-06T02:57:37.883Z,0
2017-11-06T02:58:40.256Z,0
2017-11-06T02:59:42.625Z,0
2017-11-06T03:00:45.008Z,0
2017-11-06T03:01:47.377Z,0
2017-11-06T03:02:49.742Z,0
2017-11-06T03:03:52.116Z,0
2017-11-06T03:04:54.488Z,0
2017-11-06T03:05:57.208Z,0
2017-11-06T03:06:59.583Z,0
2017-11-06T03:08:01.960Z,0
2017-11-06T03:09:04.334Z,0
2017-11-06T03:10:06.701Z,0
2017-11-06T03:11:09.427Z,0
2017-11-06T03:12:12.139Z,0
2017-11-06T03:13:14.515Z,0
2017-11-06T03:14:16.885Z,0
2017-11-06T03:15:19.263Z,0
2017-11-06T03:16:21.634Z,0
2017-11-06T03:17:24.005Z,0
2017-11-06T03:18:26.370Z,0
2017-11-06T03:19:28.759Z,0
2017-11-06T03:20:31.474Z,0
2017-11-06T03:21:33.844Z,0
2017-11-06T03:22:36.212Z,0
2017-11-06T03:23:38.577Z,0
2017-11-06T03:24:40.941Z,0
2017-11-06T03:25:43.312Z,0
2017-11-06T03:26:45.675Z,0
2017-11-06T03:27:48.043Z,0
2017-11-06T03:28:50.434Z,0
2017-11-06T03:29:52.793Z,0
2017-11-06T03:30:55.170Z,0
2017-11-06T03:31:57.534Z,0
2017-11-06T03:32:59.908Z,0
2017-11-06T03:34:02.266Z,0
2017-11-06T03:35:04.626Z,0
2017-11-06T03:36:07.012Z,0
2017-11-06T03:37:09.377Z,0
2017-11-06T03:38:11.741Z,0
2017-11-06T03:39:14.122Z,0
2017-11-06T03:40:16.490Z,0
2017-11-06T03:41:19.212Z,0
2017-11-06T03:42:21.589Z,0
2017-11-06T03:43:24.302Z,0
2017-11-06T03:44:26.671Z,0
2017-11-06T03:45:29.038Z,0
2017-11-06T03:46:31.402Z,0
2017-11-06T03:47:33.782Z,0
2017-11-06T03:48:36.148Z,0
2017-11-06T03:49:38.517Z,0
2017-11-06T03:50:40.895Z,0
2017-11-06T03:51:43.260Z,0
2017-11-06T03:52:45.637Z,0
2017-11-06T03:53:48.017Z,0
2017-11-06T03:54:50.371Z,0
2017-11-06T03:55:52.749Z,0
2017-11-06T03:56:55.116Z,0
2017-11-06T03:57:57.488Z,0
2017-11-06T03:58:59.858Z,0
2017-11-06T04:00:02.234Z,0
2017-11-06T04:01:04.952Z,0
2017-11-06T04:02:07.324Z,0
2017-11-06T04:03:09.683Z,0
2017-11-06T04:04:12.059Z,0
2017-11-06T04:05:14.424Z,0
2017-11-06T04:06:16.801Z,0
2017-11-06T04:07:19.169Z,0
2017-11-06T04:08:21.543Z,0
2017-11-06T04:09:23.910Z,0
2017-11-06T04:10:26.289Z,0
2017-11-06T04:11:28.652Z,0
2017-11-06T04:12:31.029Z,0
2017-11-06T04:13:33.398Z,0
2017-11-06T04:14:36.118Z,0
2017-11-06T04:15:38.488Z,0
2017-11-06T04:16:40.862Z,0
2017-11-06T04:17:43.227Z,0
2017-11-06T04:18:45.608Z,0
2017-11-06T04:19:47.973Z,0
2017-11-06T04:20:50.341Z,0
2017-11-06T04:21:52.713Z,0
2017-11-06T04:22:55.085Z,0
2017-11-06T04:23:57.448Z,0
2017-11-06T04:24:59.829Z,0
2017-11-06T04:26:02.182Z,0
2017-11-06T04:27:04.554Z,0
2017-11-06T04:28:06.925Z,0
2017-11-06T04:29:09.290Z,0
2017-11-06T04:30:11.665Z,0
2017-11-06T04:31:14.038Z,0
2017-11-06T04:32:16.408Z,0
2017-11-06T04:33:18.773Z,0
2017-11-06T04:34:21.136Z,0
2017-11-06T04:35:23.525Z,0
2017-11-06T04:36:25.886Z,0
2017-11-06T04:37:28.263Z,0
2017-11-06T04:38:30.620Z,0
2017-11-06T04:39:32.988Z,0
2017-11-06T04:40:35.363Z,0
2017-11-06T04:41:37.734Z,0
2017-11-06T04:42:40.094Z,0
2017-11-06T04:43:42.813Z,0
2017-11-06T04:44:45.190Z,0
2017-11-06T04:45:47.904Z,0
2017-11-06T04:46:50.279Z,0
2017-11-06T04:47:52.643Z,0
2017-11-06T04:48:55.009Z,0
2017-11-06T04:49:57.389Z,0
2017-11-06T04:50:59.755Z,0
2017-11-06T04:52:02.122Z,0
2017-11-06T04:53:04.486Z,0
2017-11-06T04:54:06.861Z,0
2017-11-06T04:55:09.230Z,0
2017-11-06T04:56:11.605Z,0
2017-11-06T04:57:13.965Z,0
2017-11-06T04:58:16.333Z,0
2017-11-06T04:59:18.713Z,0
2017-11-06T05:00:21.090Z,0
2017-11-06T05:01:23.443Z,0
2017-11-06T05:02:25.817Z,0
2017-11-06T05:03:28.186Z,0
2017-11-06T05:04:30.559Z,0
2017-11-06T05:05:32.927Z,0
2017-11-06T05:06:35.653Z,0
2017-11-06T05:07:38.016Z,0
2017-11-06T05:08:40.397Z,0
2017-11-06T05:09:42.773Z,0
2017-11-06T05:10:45.135Z,0
2017-11-06T05:11:47.501Z,0
2017-11-06T05:12:49.864Z,0
2017-11-06T05:13:52.245Z,0
2017-11-06T05:14:54.616Z,0
2017-11-06T05:15:57.328Z,0
2017-11-06T05:16:59.695Z,0
2017-11-06T05:18:02.060Z,0
2017-11-06T05:19:04.435Z,0
2017-11-06T05:20:06.808Z,0
2017-11-06T05:21:09.167Z,0
2017-11-06T05:22:11.529Z,0
2017-11-06T05:23:13.914Z,0
2017-11-06T05:24:16.284Z,0
2017-11-06T05:25:18.660Z,0
2017-11-06T05:26:21.021Z,0
2017-11-06T05:27:23.893Z,0
2017-11-06T05:28:26.266Z,0
2017-11-06T05:29:28.642Z,0
2017-11-06T05:30:30.999Z,0
2017-11-06T05:31:33.371Z,0
2017-11-06T05:32:35.737Z,0
2017-11-06T05:33:38.094Z,0
2017-11-06T05:34:40.830Z,0
2017-11-06T05:35:43.193Z,0
2017-11-06T05:36:45.566Z,0
2017-11-06T05:37:47.928Z,0
2017-11-06T05:38:50.299Z,0
2017-11-06T05:39:52.668Z,0
2017-11-06T05:40:55.047Z,0
2017-11-06T05:41:57.754Z,0
2017-11-06T05:43:00.115Z,0
2017-11-06T05:44:02.481Z,0
2017-11-06T05:45:04.851Z,0
2017-11-06T05:46:07.936Z,0
2017-11-06T05:47:10.296Z,4
2017-11-06T05:48:12.659Z,4
2017-11-06T05:49:15.033Z,0
2017-11-06T05:50:17.393Z,4
2017-11-06T05:51:19.761Z,4
2017-11-06T05:52:22.126Z,8
2017-11-06T05:53:24.861Z,8
2017-11-06T05:54:27.227Z,8
2017-11-06T05:55:29.606Z,12
2017-11-06T05:56:31.957Z,12
2017-11-06T05:57:34.331Z,12
2017-11-06T05:58:36.699Z,16
2017-11-06T05:59:39.064Z,20
2017-11-06T06:00:41.447Z,24
2017-11-06T06:01:43.810Z,28
2017-11-06T06:02:46.180Z,32
2017-11-06T06:03:48.552Z,40
2017-11-06T06:04:50.923Z,44
2017-11-06T06:05:53.678Z,56
2017-11-06T06:06:56.027Z,64
2017-11-06T06:07:58.379Z,76
2017-11-06T06:09:00.752Z,88
2017-11-06T06:10:03.122Z,100
2017-11-06T06:11:05.493Z,112
2017-11-06T06:12:07.856Z,132
2017-11-06T06:13:10.220Z,148
2017-11-06T06:14:12.585Z,168
2017-11-06T06:15:14.965Z,184
2017-11-06T06:16:17.329Z,212
2017-11-06T06:17:20.050Z,236
2017-11-06T06:18:22.420Z,256
2017-11-06T06:19:24.796Z,284
2017-11-06T06:20:27.166Z,316
2017-11-06T06:21:29.541Z,348
2017-11-06T06:22:31.905Z,376
2017-11-06T06:23:34.268Z,408
2017-11-06T06:24:36.638Z,444
2017-11-06T06:25:39.008Z,472
2017-11-06T06:26:41.370Z,504
2017-11-06T06:27:43.744Z,544
2017-11-06T06:28:46.111Z,580
2017-11-06T06:29:48.483Z,620
2017-11-06T06:30:50.856Z,664
2017-11-06T06:31:53.575Z,704
2017-11-06T06:32:55.945Z,752
2017-11-06T06:33:58.301Z,808
2017-11-06T06:35:00.670Z,856
2017-11-06T06:36:03.054Z,900
2017-11-06T06:37:05.412Z,928
2017-11-06T06:38:07.785Z,984
2017-11-06T06:39:10.150Z,1032
2017-11-06T06:40:12.506Z,1088
2017-11-06T06:41:14.890Z,1144
2017-11-06T06:42:17.262Z,1228
2017-11-06T06:43:19.627Z,1304
2017-11-06T06:44:22.000Z,1388
2017-11-06T06:45:24.359Z,1476
2017-11-06T06:46:26.749Z,1588
2017-11-06T06:47:29.119Z,1660
2017-11-06T06:48:31.482Z,1776
2017-11-06T06:49:33.852Z,1904
2017-11-06T06:50:36.221Z,2024
2017-11-06T06:51:38.588Z,2132
2017-11-06T06:52:40.957Z,2344
2017-11-06T06:53:43.313Z,2712
2017-11-06T06:54:45.681Z,2968
2017-11-06T06:55:48.401Z,3228
2017-11-06T06:56:50.769Z,3432
2017-11-06T06:57:53.488Z,3332
2017-11-06T06:58:55.860Z,3488
2017-11-06T06:59:58.226Z,3636
2017-11-06T07:01:00.593Z,3748
2017-11-06T07:02:03.317Z,4136
2017-11-06T07:03:05.686Z,4428
2017-11-06T07:04:08.048Z,5436
2017-11-06T07:05:10.433Z,5576
2017-11-06T07:06:12.802Z,6160
2017-11-06T07:07:15.169Z,6760
2017-11-06T07:08:17.540Z,7512
2017-11-06T07:09:19.909Z,8344
2017-11-06T07:10:22.285Z,9516
2017-11-06T07:11:25.024Z,10016
2017-11-06T07:12:27.380Z,11164
2017-11-06T07:13:29.753Z,10532
2017-11-06T07:14:32.159Z,11028
2017-11-06T07:15:34.842Z,13132
2017-11-06T07:16:37.218Z,13660
2017-11-06T07:17:40.286Z,11052
2017-11-06T07:18:42.656Z,10280
2017-11-06T07:19:45.384Z,14084
2017-11-06T07:20:47.754Z,14980
2017-11-06T07:21:50.112Z,13664
2017-11-06T07:22:52.490Z,15300
2017-11-06T07:23:54.867Z,18816
2017-11-06T07:24:57.236Z,17120
2017-11-06T07:25:59.616Z,14508
2017-11-06T07:27:01.986Z,17280
2017-11-06T07:28:04.364Z,17280
2017-11-06T07:29:06.725Z,18208
2017-11-06T07:30:09.100Z,20064
2017-11-06T07:31:11.473Z,22208
2017-11-06T07:32:13.848Z,21376
2017-11-06T07:33:16.213Z,21056
2017-11-06T07:34:18.587Z,18176
2017-11-06T07:35:20.961Z,20064
2017-11-06T07:36:23.341Z,20320
2017-11-06T07:37:25.721Z,18944
2017-11-06T07:38:28.083Z,22944
2017-11-06T07:39:30.488Z,25664
2017-11-06T07:40:32.857Z,25184
2017-11-06T07:41:35.236Z,25920
2017-11-06T07:42:37.619Z,23680
2017-11-06T07:43:39.983Z,24480
2017-11-06T07:44:42.353Z,25280
2017-11-06T07:45:44.743Z,22784
2017-11-06T07:46:47.113Z,28736
2017-11-06T07:47:49.481Z,25888
2017-11-06T07:48:51.854Z,32608
2017-11-06T07:49:54.223Z,38272
2017-11-06T07:50:56.957Z,32512
2017-11-06T07:51:59.338Z,34624
2017-11-06T07:53:01.700Z,41024
2017-11-06T07:54:04.082Z,37600
2017-11-06T07:55:06.457Z,35552
2017-11-06T07:56:08.832Z,30816
2017-11-06T07:57:11.201Z,32704
2017-11-06T07:58:13.576Z,31168
2017-11-06T07:59:15.944Z,31808
2017-11-06T08:00:18.332Z,32608
2017-11-06T08:01:20.714Z,23808
2017-11-06T08:02:23.076Z,32768
2017-11-06T08:03:25.456Z,33856
2017-11-06T08:04:27.841Z,37600
2017-11-06T08:05:30.217Z,32416
2017-11-06T08:06:32.601Z,34496
2017-11-06T08:07:34.972Z,34560
2017-11-06T08:08:37.343Z,35040
2017-11-06T08:09:39.731Z,32960
2017-11-06T08:10:42.108Z,33664
2017-11-06T08:11:44.484Z,31328
2017-11-06T08:12:46.858Z,17740
2017-11-06T08:13:49.226Z,13912
2017-11-06T08:14:51.607Z,14512
2017-11-06T08:15:53.985Z,31424
2017-11-06T08:16:56.355Z,33024
2017-11-06T08:17:58.736Z,38304
2017-11-06T08:19:01.106Z,41696
2017-11-06T08:20:03.486Z,44512
2017-11-06T08:21:05.885Z,44640
2017-11-06T08:22:08.252Z,46496
2017-11-06T08:23:10.632Z,43200
2017-11-06T08:24:13.009Z,46048
2017-11-06T08:25:15.398Z,48352
2017-11-06T08:26:17.765Z,46336
2017-11-06T08:27:20.501Z,45472
2017-11-06T08:28:22.879Z,46816
2017-11-06T08:29:25.254Z,44000
2017-11-06T08:30:27.636Z,39520
2017-11-06T08:31:30.366Z,40192
2017-11-06T08:32:32.742Z,37792
2017-11-06T08:33:35.128Z,34656
2017-11-06T08:34:37.492Z,35168
2017-11-06T08:35:39.879Z,40256
2017-11-06T08:36:42.253Z,41952
2017-11-06T08:37:44.982Z,41600
2017-11-06T08:38:47.360Z,44576
2017-11-06T08:39:49.736Z,49248
2017-11-06T08:40:52.109Z,56960
2017-11-06T08:41:54.489Z,60064
2017-11-06T08:42:56.866Z,63328
2017-11-06T08:43:59.262Z,65792
2017-11-06T08:45:01.633Z,63936
2017-11-06T08:46:04.012Z,59712
2017-11-06T08:47:06.403Z,54240
2017-11-06T08:48:08.787Z,54112
2017-11-06T08:49:11.161Z,54752
2017-11-06T08:50:13.549Z,55040
2017-11-06T08:51:16.274Z,61248
2017-11-06T08:52:19.019Z,63136
2017-11-06T08:53:21.406Z,63040
2017-11-06T08:54:23.774Z,59392
2017-11-06T08:55:26.164Z,58016
2017-11-06T08:56:28.540Z,54976
2017-11-06T08:57:30.921Z,51936
2017-11-06T08:58:33.306Z,52704
2017-11-06T08:59:35.690Z,57472
2017-11-06T09:00:38.078Z,59648
2017-11-06T09:01:40.453Z,60544
2017-11-06T09:02:42.835Z,56864
2017-11-06T09:03:45.565Z,57472
2017-11-06T09:04:47.948Z,54656
2017-11-06T09:05:50.329Z,53856
2017-11-06T09:06:52.707Z,51296
2017-11-06T09:07:55.084Z,51520
2017-11-06T09:08:57.472Z,52576
2017-11-06T09:09:59.844Z,54688
2017-11-06T09:11:02.234Z,55360
2017-11-06T09:12:05.342Z,55840
2017-11-06T09:13:07.724Z,56736
2017-11-06T09:14:10.468Z,56544
2017-11-06T09:15:13.203Z,55424
2017-11-06T09:16:15.587Z,51776
2017-11-06T09:17:17.974Z,53600
2017-11-06T09:18:20.340Z,59456
2017-11-06T09:19:22.724Z,62944
2017-11-06T09:20:25.112Z,62144
2017-11-06T09:21:27.491Z,64160
2017-11-06T09:22:29.875Z,62368
2017-11-06T09:23:32.274Z,62720
2017-11-06T09:24:34.661Z,58336
2017-11-06T09:25:38.073Z,54944
2017-11-06T09:26:40.465Z,54176
2017-11-06T09:27:42.849Z,51936
2017-11-06T09:28:45.230Z,50208
2017-11-06T09:29:47.626Z,46176
2017-11-06T09:30:50.007Z,45408
2017-11-06T09:31:52.387Z,46656
2017-11-06T09:32:54.784Z,43616
2017-11-06T09:33:57.170Z,45344
2017-11-06T09:34:59.546Z,46592
2017-11-06T09:36:02.293Z,47072
2017-11-06T09:37:04.675Z,50592
2017-11-06T09:38:07.060Z,53120
2017-11-06T09:39:09.451Z,53952
2017-11-06T09:40:11.832Z,56000
2017-11-06T09:41:14.217Z,60384
2017-11-06T09:42:16.612Z,64224
2017-11-06T09:43:19.001Z,66048
2017-11-06T09:44:21.381Z,64064
2017-11-06T09:45:23.768Z,60096
2017-11-06T09:46:26.160Z,58336
2017-11-06T09:47:28.548Z,62816
2017-11-06T09:48:30.933Z,68448
2017-11-06T09:49:33.320Z,71104
2017-11-06T09:50:35.699Z,72288
2017-11-06T09:51:38.101Z,67904
2017-11-06T09:52:40.482Z,64288
2017-11-06T09:53:42.875Z,64832
2017-11-06T09:54:45.261Z,69728
2017-11-06T09:55:47.646Z,73312
2017-11-06T09:56:50.037Z,76960
2017-11-06T09:57:52.431Z,82176
2017-11-06T09:58:54.814Z,85664
2017-11-06T09:59:57.201Z,87520
2017-11-06T10:00:59.587Z,84000
2017-11-06T10:02:01.981Z,73280
2017-11-06T10:03:04.365Z,71616
2017-11-06T10:04:06.761Z,76032
2017-11-06T10:05:09.488Z,71360
2017-11-06T10:06:11.898Z,67456
2017-11-06T10:07:14.279Z,70432
2017-11-06T10:08:16.661Z,73504
2017-11-06T10:09:19.060Z,72480
2017-11-06T10:10:21.460Z,73824
2017-11-06T10:11:24.216Z,75392
2017-11-06T10:12:26.605Z,73184
2017-11-06T10:13:29.003Z,70272
2017-11-06T10:14:31.385Z,69152
2017-11-06T10:15:33.783Z,63040
2017-11-06T10:16:36.160Z,66080
2017-11-06T10:17:38.554Z,71584
2017-11-06T10:18:40.941Z,68416
2017-11-06T10:19:43.328Z,66272
2017-11-06T10:20:45.722Z,65312
2017-11-06T10:21:48.109Z,63968
2017-11-06T10:22:50.498Z,56416
2017-11-06T10:23:52.896Z,54816
2017-11-06T10:24:55.285Z,58752
2017-11-06T10:25:57.674Z,59008
2017-11-06T10:27:00.051Z,59808
2017-11-06T10:28:02.441Z,60320
2017-11-06T10:29:05.181Z,58336
2017-11-06T10:30:07.561Z,58752
2017-11-06T10:31:09.959Z,60960
2017-11-06T10:32:12.347Z,65120
2017-11-06T10:33:14.737Z,68448
2017-11-06T10:34:17.137Z,69088
2017-11-06T10:35:19.522Z,68416
2017-11-06T10:36:21.920Z,66848
2017-11-06T10:37:24.654Z,66304
2017-11-06T10:38:27.048Z,63744
2017-11-06T10:39:29.798Z,64704
2017-11-06T10:40:32.194Z,72192
2017-11-06T10:41:34.571Z,75136
2017-11-06T10:42:37.317Z,73536
2017-11-06T10:43:39.712Z,76736
2017-11-06T10:44:42.447Z,79616
2017-11-06T10:45:44.845Z,75488
2017-11-06T10:46:47.231Z,69216
2017-11-06T10:47:49.621Z,63840
2017-11-06T10:48:52.021Z,59776
2017-11-06T10:49:54.410Z,63264
2017-11-06T10:50:56.849Z,69280
2017-11-06T10:51:59.240Z,66688
2017-11-06T10:53:01.631Z,59808
2017-11-06T10:54:04.373Z,62272
2017-11-06T10:55:06.760Z,70912
2017-11-06T10:56:09.161Z,73568
2017-11-06T10:57:11.552Z,70624
2017-11-06T10:58:13.935Z,64608
2017-11-06T10:59:16.677Z,61888
2017-11-06T11:00:19.419Z,67776
2017-11-06T11:01:21.811Z,72128
2017-11-06T11:02:24.215Z,71040
2017-11-06T11:03:26.938Z,66816
2017-11-06T11:04:29.326Z,65856
2017-11-06T11:05:31.733Z,66400
2017-11-06T11:06:34.121Z,66880
2017-11-06T11:07:36.504Z,67552
2017-11-06T11:08:38.893Z,69824
2017-11-06T11:09:41.284Z,66496
2017-11-06T11:10:43.675Z,70432
2017-11-06T11:11:46.069Z,76000
2017-11-06T11:12:48.808Z,79104
2017-11-06T11:13:51.549Z,77664
2017-11-06T11:14:53.942Z,77216
2017-11-06T11:15:56.678Z,79712
2017-11-06T11:16:59.082Z,79584
2017-11-06T11:18:01.467Z,80800
2017-11-06T11:19:03.860Z,82912
2017-11-06T11:20:06.251Z,85856
2017-11-06T11:21:08.638Z,83488
2017-11-06T11:22:11.035Z,77056
2017-11-06T11:23:13.423Z,77632
2017-11-06T11:24:15.817Z,73696
2017-11-06T11:25:18.209Z,71072
2017-11-06T11:26:20.597Z,69728
2017-11-06T11:27:22.995Z,70944
2017-11-06T11:28:25.401Z,69536
2017-11-06T11:29:28.125Z,67168
2017-11-06T11:30:30.528Z,66496
2017-11-06T11:31:32.915Z,63552
2017-11-06T11:32:35.311Z,61120
2017-11-06T11:33:38.044Z,51616
2017-11-06T11:34:40.435Z,35264
2017-11-06T11:35:42.827Z,65984
2017-11-06T11:36:45.229Z,66368
2017-11-06T11:37:47.611Z,66016
2017-11-06T11:38:50.012Z,62752
2017-11-06T11:39:52.408Z,61824
2017-11-06T11:40:54.780Z,66848
2017-11-06T11:41:57.180Z,70752
2017-11-06T11:42:59.569Z,71680
2017-11-06T11:44:01.961Z,67776
2017-11-06T11:45:04.699Z,62976
2017-11-06T11:46:07.090Z,66464
2017-11-06T11:47:09.476Z,72448
2017-11-06T11:48:11.878Z,72800
2017-11-06T11:49:14.264Z,65536
2017-11-06T11:50:16.650Z,59008
2017-11-06T11:51:19.049Z,66496
2017-11-06T11:52:21.440Z,73216
2017-11-06T11:53:23.837Z,69024
2017-11-06T11:54:26.221Z,68192
2017-11-06T11:55:28.622Z,70848
2017-11-06T11:56:31.017Z,70688
2017-11-06T11:57:33.405Z,66752
2017-11-06T11:58:35.797Z,66464
2017-11-06T11:59:38.202Z,67584
2017-11-06T12:00:40.587Z,66496
2017-11-06T12:01:43.685Z,63712
2017-11-06T12:02:46.071Z,64640
2017-11-06T12:03:48.458Z,60896
2017-11-06T12:04:50.903Z,56448
2017-11-06T12:05:53.254Z,54560
2017-11-06T12:06:55.654Z,55648
2017-11-06T12:07:58.040Z,59744
2017-11-06T12:09:00.426Z,62720
2017-11-06T12:10:02.828Z,68864
2017-11-06T12:11:05.574Z,67104
2017-11-06T12:12:07.949Z,58016
2017-11-06T12:13:10.367Z,55808
2017-11-06T12:14:12.742Z,58656
2017-11-06T12:15:15.133Z,60672
2017-11-06T12:16:17.530Z,60032
2017-11-06T12:17:19.915Z,57024
2017-11-06T12:18:22.305Z,54432
2017-11-06T12:19:25.057Z,49760
2017-11-06T12:20:27.445Z,9060
2017-11-06T12:21:29.839Z,45504
2017-11-06T12:22:32.225Z,50112
2017-11-06T12:23:34.624Z,54560
2017-11-06T12:24:37.010Z,55648
2017-11-06T12:25:39.407Z,52128
2017-11-06T12:26:41.797Z,51360
2017-11-06T12:27:44.193Z,56288
2017-11-06T12:28:46.577Z,58880
2017-11-06T12:29:48.985Z,56352
2017-11-06T12:30:51.359Z,51776
2017-11-06T12:31:54.107Z,50976
2017-11-06T12:32:56.497Z,47200
2017-11-06T12:33:58.896Z,48224
2017-11-06T12:35:02.004Z,49440
2017-11-06T12:36:04.739Z,50592
2017-11-06T12:37:07.118Z,49312
2017-11-06T12:38:09.512Z,47552
2017-11-06T12:39:11.898Z,47616
2017-11-06T12:40:14.296Z,46176
2017-11-06T12:41:16.695Z,45984
2017-11-06T12:42:19.080Z,46208
2017-11-06T12:43:21.460Z,45216
2017-11-06T12:44:23.861Z,45184
2017-11-06T12:45:26.247Z,46112
2017-11-06T12:46:28.642Z,50176
2017-11-06T12:47:31.034Z,51456
2017-11-06T12:48:33.432Z,51008
2017-11-06T12:49:35.815Z,46400
2017-11-06T12:50:38.211Z,37216
2017-11-06T12:51:40.972Z,32576
2017-11-06T12:52:43.363Z,32544
2017-11-06T12:53:46.131Z,34688
2017-11-06T12:54:48.520Z,37824
2017-11-06T12:55:50.913Z,31392
2017-11-06T12:56:53.640Z,29952
2017-11-06T12:57:56.035Z,27200
2017-11-06T12:58:58.425Z,25408
2017-11-06T13:00:00.813Z,30784
2017-11-06T13:01:03.207Z,33568
2017-11-06T13:02:05.962Z,32448
2017-11-06T13:03:08.341Z,28352
2017-11-06T13:04:10.746Z,27712
2017-11-06T13:05:13.132Z,25344
2017-11-06T13:06:15.524Z,25248
2017-11-06T13:07:17.913Z,32672
2017-11-06T13:08:20.303Z,35872
2017-11-06T13:09:23.056Z,41632
2017-11-06T13:10:25.448Z,44320
2017-11-06T13:11:27.830Z,42208
2017-11-06T13:12:30.256Z,40352
2017-11-06T13:13:32.638Z,21696
2017-11-06T13:14:35.230Z,19456
2017-11-06T13:15:37.627Z,24000
2017-11-06T13:16:40.013Z,37376
2017-11-06T13:17:42.398Z,18016
2017-11-06T13:18:44.792Z,37216
2017-11-06T13:19:47.180Z,33632
2017-11-06T13:20:49.569Z,21120
2017-11-06T13:21:51.953Z,23456
2017-11-06T13:22:54.347Z,31040
2017-11-06T13:23:56.732Z,15016
2017-11-06T13:24:59.128Z,26816
2017-11-06T13:26:01.521Z,19360
2017-11-06T13:27:03.919Z,15628
2017-11-06T13:28:06.302Z,11168
2017-11-06T13:29:08.694Z,9684
2017-11-06T13:30:11.087Z,8396
2017-11-06T13:31:13.473Z,7012
2017-11-06T13:32:15.852Z,6588
2017-11-06T13:33:18.252Z,6252
2017-11-06T13:34:20.640Z,6296
2017-11-06T13:35:23.038Z,6308
2017-11-06T13:36:25.420Z,6136
2017-11-06T13:37:27.811Z,6036
2017-11-06T13:38:30.191Z,5816
2017-11-06T13:39:32.582Z,5676
2017-11-06T13:40:34.968Z,5612
2017-11-06T13:41:37.704Z,5496
2017-11-06T13:42:40.072Z,5436
2017-11-06T13:43:42.464Z,5376
2017-11-06T13:44:44.849Z,5308
2017-11-06T13:45:47.235Z,5256
2017-11-06T13:46:49.619Z,5288
2017-11-06T13:47:52.006Z,5204
2017-11-06T13:48:54.390Z,5224
2017-11-06T13:49:56.785Z,5456
2017-11-06T13:50:59.162Z,5796
2017-11-06T13:52:01.556Z,6356
2017-11-06T13:53:03.947Z,6968
2017-11-06T13:54:06.313Z,7632
2017-11-06T13:55:08.707Z,8324
2017-11-06T13:56:11.088Z,8684
2017-11-06T13:57:13.471Z,8600
2017-11-06T13:58:15.856Z,8208
2017-11-06T13:59:18.616Z,8136
2017-11-06T14:00:20.995Z,8092
2017-11-06T14:01:23.391Z,8252
2017-11-06T14:02:26.130Z,8176
2017-11-06T14:03:28.504Z,7632
2017-11-06T14:04:30.907Z,6856
2017-11-06T14:05:33.272Z,6296
2017-11-06T14:06:35.670Z,6004
2017-11-06T14:07:38.056Z,5964
2017-11-06T14:08:40.430Z,5920
2017-11-06T14:09:42.819Z,5872
2017-11-06T14:10:45.556Z,5796
2017-11-06T14:11:47.936Z,5896
2017-11-06T14:12:50.323Z,6360
2017-11-06T14:13:52.701Z,6616
2017-11-06T14:14:55.081Z,6432
2017-11-06T14:15:57.480Z,5952